createdAt,value
2018-07-21T00:01:18.490Z,5.63
2018-07-21T00:03:46.639Z,5.17
2018-07-21T00:06:14.811Z,5.30
2018-07-21T00:08:43.072Z,5.40
2018-07-21T00:11:11.210Z,5.40
2018-07-21T00:13:39.347Z,5.13
2018-07-21T00:16:07.551Z,5.30
2018-07-21T00:18:35.796Z,4.93
2018-07-21T00:21:03.979Z,4.80
2018-07-21T00:23:32.273Z,5.03
2018-07-21T00:26:00.504Z,5.27
2018-07-21T00:28:28.668Z,5.30
2018-07-21T00:30:56.817Z,5.00
2018-07-21T00:33:25.007Z,5.10
2018-07-21T00:35:53.159Z,4.87
2018-07-21T00:38:21.365Z,6.20
2018-07-21T00:40:49.508Z,5.83
2018-07-21T00:43:17.711Z,5.33
2018-07-21T00:45:46.496Z,4.90
2018-07-21T00:48:14.668Z,5.10
2018-07-21T00:50:42.937Z,5.23
2018-07-21T00:53:11.382Z,4.73
2018-07-21T00:55:39.595Z,5.37
2018-07-21T00:58:07.872Z,5.00
2018-07-21T01:00:36.004Z,5.53
2018-07-21T01:03:04.130Z,4.97
2018-07-21T01:05:32.311Z,5.20
2018-07-21T01:08:00.493Z,5.03
2018-07-21T01:10:28.664Z,6.00
2018-07-21T01:12:56.808Z,6.27
2018-07-21T01:15:25.000Z,6.33
2018-07-21T01:17:53.197Z,6.50
2018-07-21T01:20:21.683Z,6.17
2018-07-21T01:22:49.940Z,6.67
2018-07-21T01:25:18.441Z,6.97
2018-07-21T01:27:46.657Z,6.33
2018-07-21T01:30:14.817Z,6.50
2018-07-21T01:32:42.731Z,6.87
2018-07-21T01:35:10.923Z,6.80
2018-07-21T01:37:39.071Z,6.83
2018-07-21T01:40:07.265Z,7.33
2018-07-21T01:42:35.452Z,6.73
2018-07-21T01:45:03.680Z,6.90
2018-07-21T01:47:31.978Z,7.13
2018-07-21T01:50:00.280Z,7.40
2018-07-21T01:52:28.522Z,7.10
2018-07-21T01:54:56.731Z,6.80
2018-07-21T01:57:24.920Z,6.87
2018-07-21T01:59:53.155Z,6.53
2018-07-21T02:02:21.889Z,7.40
2018-07-21T02:04:50.088Z,7.67
2018-07-21T02:07:19.208Z,9.13
2018-07-21T02:09:47.848Z,10.97
2018-07-21T02:12:16.047Z,10.80
2018-07-21T02:14:47.972Z,9.83
2018-07-21T02:17:16.209Z,9.77
2018-07-21T02:19:44.335Z,10.77
2018-07-21T02:22:12.511Z,10.70
2018-07-21T02:24:40.676Z,10.13
2018-07-21T02:27:09.592Z,10.13
2018-07-21T02:29:37.737Z,11.13
2018-07-21T02:32:06.030Z,12.30
2018-07-21T02:34:34.205Z,14.57
2018-07-21T02:37:02.412Z,17.17
2018-07-21T02:39:30.560Z,15.80
2018-07-21T02:41:58.752Z,14.83
2018-07-21T02:44:26.897Z,17.60
2018-07-21T02:46:55.052Z,16.80
2018-07-21T02:49:23.196Z,18.07
2018-07-21T02:51:51.351Z,19.37
2018-07-21T02:54:19.515Z,15.17
2018-07-21T02:56:47.687Z,18.50
2018-07-21T02:59:15.833Z,19.57
2018-07-21T03:01:44.027Z,17.73
2018-07-21T03:04:12.252Z,19.13
2018-07-21T03:06:40.502Z,17.13
2018-07-21T03:09:10.424Z,21.23
2018-07-21T03:11:38.604Z,19.40
2018-07-21T03:14:06.875Z,17.80
2018-07-21T03:16:35.056Z,21.77
2018-07-21T03:19:03.275Z,15.70
2018-07-21T03:21:31.564Z,16.87
2018-07-21T03:23:59.720Z,19.87
2018-07-21T03:26:27.921Z,17.87
2018-07-21T03:28:56.111Z,18.90
2018-07-21T03:31:24.316Z,15.47
2018-07-21T03:33:52.504Z,13.40
2018-07-21T03:36:21.293Z,13.23
2018-07-21T03:38:49.600Z,15.37
2018-07-21T03:41:17.848Z,17.57
2018-07-21T03:43:46.014Z,17.20
2018-07-21T03:46:14.208Z,18.83
2018-07-21T03:48:42.371Z,16.07
2018-07-21T03:51:10.555Z,16.37
2018-07-21T03:53:38.728Z,18.57
2018-07-21T03:56:06.914Z,19.53
2018-07-21T03:58:35.099Z,18.90
2018-07-21T04:01:03.264Z,17.40
2018-07-21T04:03:31.475Z,16.90
2018-07-21T04:06:00.334Z,16.30
2018-07-21T04:08:28.531Z,14.60
2018-07-21T04:10:56.706Z,13.37
2018-07-21T04:13:24.899Z,11.87
2018-07-21T04:15:53.104Z,13.43
2018-07-21T04:18:21.273Z,15.20
2018-07-21T04:20:49.477Z,16.23
2018-07-21T04:23:17.686Z,16.90
2018-07-21T04:25:45.881Z,19.27
2018-07-21T04:28:14.072Z,16.97
2018-07-21T04:30:42.235Z,15.23
2018-07-21T04:33:10.411Z,17.33
2018-07-21T04:35:38.584Z,17.80
2018-07-21T04:38:06.876Z,20.03
2018-07-21T04:40:35.085Z,18.73
2018-07-21T04:43:03.252Z,17.60
2018-07-21T04:45:31.421Z,16.07
2018-07-21T04:47:59.598Z,14.20
2018-07-21T04:50:27.763Z,16.03
2018-07-21T04:52:55.948Z,16.73
2018-07-21T04:55:24.139Z,17.27
2018-07-21T04:57:52.392Z,16.10
2018-07-21T05:00:20.585Z,15.93
2018-07-21T05:02:48.753Z,14.27
2018-07-21T05:05:16.923Z,14.07
2018-07-21T05:07:45.168Z,13.67
2018-07-21T05:10:13.337Z,11.87
2018-07-21T05:12:41.533Z,13.87
2018-07-21T05:15:09.711Z,13.27
2018-07-21T05:17:37.961Z,12.63
2018-07-21T05:20:06.262Z,10.23
2018-07-21T05:22:34.441Z,10.50
2018-07-21T05:25:02.661Z,10.80
2018-07-21T05:27:30.825Z,9.97
2018-07-21T05:29:58.990Z,9.30
2018-07-21T05:32:27.187Z,10.23
2018-07-21T05:34:56.266Z,9.73
2018-07-21T05:37:24.423Z,9.10
2018-07-21T05:39:52.640Z,9.83
2018-07-21T05:42:20.826Z,9.50
2018-07-21T05:44:48.984Z,8.27
2018-07-21T05:47:17.164Z,8.63
2018-07-21T05:49:45.331Z,10.13
2018-07-21T05:52:13.503Z,9.43
2018-07-21T05:54:41.745Z,9.40
2018-07-21T05:57:09.887Z,9.87
2018-07-21T05:59:38.043Z,9.60
2018-07-21T06:02:06.830Z,9.33
2018-07-21T06:04:35.018Z,8.57
2018-07-21T06:07:03.223Z,7.63
2018-07-21T06:09:31.391Z,7.87
2018-07-21T06:11:59.563Z,7.27
2018-07-21T06:14:27.740Z,7.43
2018-07-21T06:16:55.925Z,6.47
2018-07-21T06:19:24.075Z,6.70
2018-07-21T06:21:52.202Z,6.77
2018-07-21T06:24:20.361Z,6.90
2018-07-21T06:26:48.506Z,6.17
2018-07-21T06:29:16.682Z,7.03
2018-07-21T06:31:44.878Z,6.10
2018-07-21T06:34:13.055Z,6.23
2018-07-21T06:36:41.217Z,6.40
2018-07-21T06:39:11.108Z,6.00
2018-07-21T06:41:39.395Z,6.80
2018-07-21T06:44:07.689Z,7.60
2018-07-21T06:46:35.861Z,7.37
2018-07-21T06:49:04.052Z,7.00
2018-07-21T06:51:32.233Z,7.60
2018-07-21T06:54:00.434Z,7.80
2018-07-21T06:56:28.359Z,8.00
2018-07-21T06:58:57.005Z,7.13
2018-07-21T07:01:25.169Z,6.70
2018-07-21T07:03:53.385Z,7.17
2018-07-21T07:06:21.556Z,7.43
2018-07-21T07:08:49.734Z,6.53
2018-07-21T07:11:17.892Z,5.97
2018-07-21T07:13:46.148Z,6.13
2018-07-21T07:16:14.340Z,5.27
2018-07-21T07:18:42.494Z,6.07
2018-07-21T07:21:10.427Z,5.60
2018-07-21T07:23:38.583Z,5.60
2018-07-21T07:26:06.751Z,4.83
2018-07-21T07:28:34.928Z,5.07
2018-07-21T07:31:03.119Z,5.37
2018-07-21T07:33:31.302Z,5.50
2018-07-21T07:35:59.548Z,5.67
2018-07-21T07:38:27.746Z,5.80
2018-07-21T07:40:55.912Z,5.77
2018-07-21T07:43:24.123Z,5.23
2018-07-21T07:45:52.280Z,5.50
2018-07-21T07:48:20.424Z,5.37
2018-07-21T07:50:48.595Z,5.40
2018-07-21T07:53:16.731Z,4.50
2018-07-21T07:55:44.933Z,5.50
2018-07-21T07:58:13.329Z,5.37
2018-07-21T08:00:41.460Z,4.70
2018-07-21T08:03:09.596Z,5.20
2018-07-21T08:05:37.755Z,5.43
2018-07-21T08:08:06.928Z,4.93
2018-07-21T08:10:35.120Z,4.60
2018-07-21T08:13:03.316Z,4.80
2018-07-21T08:15:31.468Z,4.70
2018-07-21T08:17:59.649Z,5.63
2018-07-21T08:20:27.833Z,6.30
2018-07-21T08:22:56.008Z,5.67
2018-07-21T08:25:24.199Z,5.93
2018-07-21T08:27:52.938Z,5.60
2018-07-21T08:30:21.112Z,5.47
2018-07-21T08:32:49.263Z,5.90
2018-07-21T08:35:17.426Z,5.87
2018-07-21T08:37:45.578Z,5.80
2018-07-21T08:40:13.731Z,5.23
2018-07-21T08:42:41.888Z,5.90
2018-07-21T08:45:10.069Z,6.83
2018-07-21T08:47:38.232Z,6.50
2018-07-21T08:50:06.826Z,6.50
2018-07-21T08:52:34.988Z,6.87
2018-07-21T08:55:03.147Z,6.43
2018-07-21T08:57:31.283Z,6.80
2018-07-21T08:59:59.447Z,6.00
2018-07-21T09:02:27.591Z,6.03
2018-07-21T09:04:56.631Z,5.93
2018-07-21T09:07:24.776Z,6.50
2018-07-21T09:09:52.923Z,6.33
2018-07-21T09:12:21.075Z,6.00
2018-07-21T09:14:49.259Z,5.97
2018-07-21T09:17:20.924Z,5.70
2018-07-21T09:19:50.040Z,6.33
2018-07-21T09:22:18.271Z,6.60
2018-07-21T09:24:46.675Z,6.07
2018-07-21T09:27:15.111Z,5.53
2018-07-21T09:29:43.278Z,6.17
2018-07-21T09:32:12.111Z,5.63
2018-07-21T09:34:40.279Z,6.47
2018-07-21T09:37:09.133Z,5.23
2018-07-21T09:39:37.319Z,5.70
2018-07-21T09:42:05.497Z,5.57
2018-07-21T09:44:33.664Z,5.63
2018-07-21T09:47:01.851Z,5.73
2018-07-21T09:49:30.077Z,5.97
2018-07-21T09:51:58.299Z,5.43
2018-07-21T09:54:26.475Z,6.03
2018-07-21T09:56:54.669Z,6.10
2018-07-21T09:59:22.935Z,5.90
2018-07-21T10:01:51.148Z,5.63
2018-07-21T10:04:19.333Z,5.60
2018-07-21T10:06:47.505Z,6.13
2018-07-21T10:09:15.651Z,6.20
2018-07-21T10:11:43.845Z,6.40
2018-07-21T10:14:11.999Z,6.07
2018-07-21T10:16:40.154Z,5.70
2018-07-21T10:19:09.374Z,5.67
2018-07-21T10:21:37.564Z,5.40
2018-07-21T10:24:11.724Z,5.20
2018-07-21T10:26:45.401Z,5.50
2018-07-21T10:29:14.444Z,4.80
2018-07-21T10:31:43.616Z,3.90
2018-07-21T10:34:12.118Z,4.40
2018-07-21T10:36:40.999Z,4.63
2018-07-21T10:39:12.257Z,4.70
2018-07-21T10:41:40.480Z,4.20
2018-07-21T10:44:08.678Z,4.00
2018-07-21T10:46:36.883Z,3.90
2018-07-21T10:49:05.783Z,4.37
2018-07-21T10:51:33.969Z,3.67
2018-07-21T10:54:02.180Z,3.70
2018-07-21T10:56:30.377Z,3.50
2018-07-21T10:58:58.539Z,4.10
2018-07-21T11:01:27.823Z,4.00
2018-07-21T11:03:56.003Z,4.30
2018-07-21T11:06:24.179Z,3.80
2018-07-21T11:08:52.519Z,4.13
2018-07-21T11:11:20.801Z,4.40
2018-07-21T11:13:48.995Z,4.40
2018-07-21T11:16:17.843Z,4.40
2018-07-21T11:18:46.699Z,4.17
2018-07-21T11:21:14.901Z,4.53
2018-07-21T11:23:43.047Z,4.10
2018-07-21T11:26:11.336Z,4.10
2018-07-21T11:28:39.496Z,4.33
2018-07-21T11:31:07.691Z,3.87
2018-07-21T11:33:35.879Z,4.03
2018-07-21T11:36:04.331Z,4.20
2018-07-21T11:38:32.288Z,3.70
2018-07-21T11:41:00.470Z,4.07
2018-07-21T11:43:28.688Z,4.47
2018-07-21T11:45:56.875Z,4.60
2018-07-21T11:48:25.067Z,4.60
2018-07-21T11:50:53.518Z,4.53
2018-07-21T11:53:21.712Z,4.43
2018-07-21T11:55:49.912Z,4.77
2018-07-21T11:58:18.155Z,4.47
2018-07-21T12:00:46.334Z,4.33
2018-07-21T12:03:14.516Z,4.43
2018-07-21T12:05:42.748Z,4.90
2018-07-21T12:08:11.176Z,5.20
2018-07-21T12:10:39.384Z,5.50
2018-07-21T12:13:07.739Z,4.80
2018-07-21T12:15:35.964Z,5.13
2018-07-21T12:18:04.202Z,5.30
2018-07-21T12:20:32.876Z,4.77
2018-07-21T12:23:01.050Z,5.07
2018-07-21T12:25:29.092Z,5.03
2018-07-21T12:27:57.394Z,4.27
2018-07-21T12:30:25.568Z,4.43
2018-07-21T12:32:54.002Z,4.70
2018-07-21T12:35:22.170Z,4.80
2018-07-21T12:37:50.380Z,4.47
2018-07-21T12:40:18.583Z,4.80
2018-07-21T12:42:46.778Z,4.80
2018-07-21T12:45:14.989Z,5.30
2018-07-21T12:47:43.179Z,5.13
2018-07-21T12:50:11.348Z,5.13
2018-07-21T12:52:39.531Z,5.30
2018-07-21T12:55:07.732Z,5.07
2018-07-21T12:57:35.932Z,4.97
2018-07-21T13:00:04.836Z,5.27
2018-07-21T13:02:33.024Z,5.33
2018-07-21T13:05:01.190Z,4.93
2018-07-21T13:07:29.437Z,4.50
2018-07-21T13:09:57.614Z,5.00
2018-07-21T13:12:25.844Z,4.80
2018-07-21T13:14:54.025Z,5.20
2018-07-21T13:17:22.927Z,4.67
2018-07-21T13:19:51.382Z,4.70
2018-07-21T13:22:20.099Z,5.17
2018-07-21T13:24:48.326Z,5.07
2018-07-21T13:27:17.207Z,5.07
2018-07-21T13:29:45.397Z,5.20
2018-07-21T13:32:13.596Z,5.27
2018-07-21T13:34:41.930Z,5.30
2018-07-21T13:37:10.128Z,5.30
2018-07-21T13:39:38.308Z,5.13
2018-07-21T13:42:06.619Z,4.60
2018-07-21T13:44:34.780Z,4.67
2018-07-21T13:47:02.966Z,5.33
2018-07-21T13:49:31.125Z,5.00
2018-07-21T13:51:59.057Z,5.17
2018-07-21T13:54:27.247Z,5.33
2018-07-21T13:56:55.749Z,5.50
2018-07-21T13:59:23.976Z,5.40
2018-07-21T14:01:52.156Z,5.67
2018-07-21T14:04:20.376Z,5.57
2018-07-21T14:06:48.569Z,5.27
2018-07-21T14:09:16.751Z,5.00
2018-07-21T14:11:45.018Z,5.50
2018-07-21T14:14:13.309Z,5.10
2018-07-21T14:16:41.467Z,5.10
2018-07-21T14:19:09.645Z,5.10
2018-07-21T14:21:37.804Z,5.10
2018-07-21T14:24:05.939Z,5.20
2018-07-21T14:26:33.875Z,4.50
2018-07-21T14:29:02.044Z,4.43
2018-07-21T14:31:30.172Z,4.60
2018-07-21T14:33:58.356Z,4.47
2018-07-21T14:36:26.625Z,4.80
2018-07-21T14:38:55.261Z,4.23
2018-07-21T14:41:23.399Z,4.60
2018-07-21T14:43:51.573Z,4.23
2018-07-21T14:46:19.738Z,4.23
2018-07-21T14:48:47.931Z,4.20
2018-07-21T14:51:16.026Z,4.23
2018-07-21T14:53:44.210Z,4.20
2018-07-21T14:56:12.488Z,3.90
2018-07-21T14:58:40.609Z,4.27
2018-07-21T15:01:08.843Z,3.57
2018-07-21T15:03:37.030Z,3.90
2018-07-21T15:06:04.988Z,4.60
2018-07-21T15:08:33.116Z,4.30
2018-07-21T15:11:02.407Z,3.70
2018-07-21T15:13:30.560Z,4.00
2018-07-21T15:15:58.749Z,4.10
2018-07-21T15:18:26.939Z,3.50
2018-07-21T15:20:55.152Z,3.87
2018-07-21T15:23:23.330Z,3.60
2018-07-21T15:25:51.253Z,3.83
2018-07-21T15:28:19.420Z,4.00
2018-07-21T15:30:47.632Z,3.73
2018-07-21T15:33:15.926Z,3.77
2018-07-21T15:35:44.115Z,3.90
2018-07-21T15:38:12.448Z,3.73
2018-07-21T15:40:40.635Z,3.70
2018-07-21T15:43:08.827Z,3.63
2018-07-21T15:45:37.003Z,3.50
2018-07-21T15:48:05.199Z,2.90
2018-07-21T15:50:33.392Z,2.97
2018-07-21T15:53:01.582Z,2.93
2018-07-21T15:55:29.747Z,3.30
2018-07-21T15:57:57.942Z,3.20
2018-07-21T16:00:26.108Z,3.07
2018-07-21T16:02:54.282Z,3.10
2018-07-21T16:05:22.539Z,2.90
2018-07-21T16:07:50.720Z,3.07
2018-07-21T16:10:19.005Z,3.10
2018-07-21T16:12:47.189Z,3.03
2018-07-21T16:15:15.370Z,3.13
2018-07-21T16:17:43.532Z,3.33
2018-07-21T16:20:11.711Z,3.63
2018-07-21T16:22:39.883Z,3.33
2018-07-21T16:25:08.144Z,3.40
2018-07-21T16:27:36.320Z,3.43
2018-07-21T16:30:04.575Z,3.10
2018-07-21T16:32:32.791Z,3.20
2018-07-21T16:35:00.939Z,3.33
2018-07-21T16:37:29.125Z,3.47
2018-07-21T16:39:57.306Z,3.40
2018-07-21T16:42:25.491Z,3.47
2018-07-21T16:44:53.694Z,3.40
2018-07-21T16:47:21.861Z,3.43
2018-07-21T16:49:50.052Z,3.73
2018-07-21T16:52:18.212Z,3.63
2018-07-21T16:54:46.408Z,3.53
2018-07-21T16:57:14.584Z,3.73
2018-07-21T16:59:42.784Z,3.83
2018-07-21T17:02:11.002Z,3.60
2018-07-21T17:04:39.153Z,3.60
2018-07-21T17:07:07.326Z,3.73
2018-07-21T17:09:35.533Z,3.30
2018-07-21T17:12:03.839Z,3.67
2018-07-21T17:14:32.075Z,3.97
2018-07-21T17:17:00.187Z,3.67
2018-07-21T17:19:28.378Z,4.10
2018-07-21T17:21:56.575Z,3.90
2018-07-21T17:24:24.719Z,3.90
2018-07-21T17:26:53.200Z,3.80
2018-07-21T17:29:21.686Z,3.67
2018-07-21T17:31:49.834Z,3.70
2018-07-21T17:34:18.028Z,3.57
2018-07-21T17:36:46.208Z,3.43
2018-07-21T17:39:14.438Z,3.50
2018-07-21T17:41:42.543Z,3.80
2018-07-21T17:44:10.705Z,3.67
2018-07-21T17:46:38.924Z,3.90
2018-07-21T17:49:07.393Z,3.63
2018-07-21T17:51:36.059Z,7.10
2018-07-21T17:54:04.385Z,7.33
2018-07-21T17:56:32.560Z,7.20
2018-07-21T17:59:00.778Z,9.93
2018-07-21T18:01:29.009Z,6.77
2018-07-21T18:03:57.204Z,9.40
2018-07-21T18:06:25.405Z,7.83
2018-07-21T18:08:54.563Z,5.23
2018-07-21T18:11:22.754Z,5.40
2018-07-21T18:13:50.922Z,5.80
2018-07-21T18:16:19.105Z,6.30
2018-07-21T18:18:47.353Z,7.60
2018-07-21T18:21:15.529Z,6.53
2018-07-21T18:23:43.672Z,5.83
2018-07-21T18:26:11.829Z,7.50
2018-07-21T18:28:39.966Z,6.50
2018-07-21T18:31:08.195Z,6.20
2018-07-21T18:33:36.400Z,5.30
2018-07-21T18:36:04.521Z,5.70
2018-07-21T18:38:32.700Z,5.57
2018-07-21T18:41:00.861Z,5.30
2018-07-21T18:43:29.055Z,5.20
2018-07-21T18:45:57.196Z,4.50
2018-07-21T18:48:25.355Z,4.40
2018-07-21T18:50:53.564Z,4.20
2018-07-21T18:53:21.711Z,3.90
2018-07-21T18:55:50.901Z,5.00
2018-07-21T18:58:19.119Z,5.97
2018-07-21T19:00:47.948Z,5.63
2018-07-21T19:03:16.086Z,7.10
2018-07-21T19:05:44.253Z,6.83
2018-07-21T19:08:17.771Z,5.43
2018-07-21T19:10:45.950Z,4.87
2018-07-21T19:13:14.098Z,6.60
2018-07-21T19:15:47.652Z,9.00
2018-07-21T19:18:15.960Z,8.03
2018-07-21T19:20:49.544Z,7.03
2018-07-21T19:23:17.731Z,6.87
2018-07-21T19:25:51.335Z,7.77
2018-07-21T19:28:19.565Z,8.43
2018-07-21T19:30:47.781Z,8.13
2018-07-21T19:33:16.005Z,9.60
2018-07-21T19:35:44.214Z,10.87
2018-07-21T19:38:12.450Z,10.20
2018-07-21T19:40:40.656Z,11.43
2018-07-21T19:43:08.896Z,12.63
2018-07-21T19:45:37.123Z,11.80
2018-07-21T19:48:06.396Z,10.10
2018-07-21T19:50:34.608Z,11.20
2018-07-21T19:53:02.839Z,10.73
2018-07-21T19:55:31.043Z,12.27
2018-07-21T19:58:00.436Z,13.70
2018-07-21T20:00:28.662Z,12.30
2018-07-21T20:02:56.896Z,13.40
2018-07-21T20:05:25.152Z,10.00
2018-07-21T20:07:53.311Z,7.63
2018-07-21T20:10:22.485Z,8.97
2018-07-21T20:12:51.017Z,11.17
2018-07-21T20:15:19.292Z,10.70
2018-07-21T20:17:47.485Z,10.10
2018-07-21T20:20:15.721Z,12.50
2018-07-21T20:22:43.914Z,11.87
2018-07-21T20:25:12.111Z,14.73
2018-07-21T20:27:40.334Z,13.33
2018-07-21T20:30:08.620Z,12.33
2018-07-21T20:32:36.796Z,14.90
2018-07-21T20:35:05.424Z,14.13
2018-07-21T20:37:33.647Z,12.80
2018-07-21T20:40:01.849Z,13.10
2018-07-21T20:42:30.048Z,12.60
2018-07-21T20:44:58.331Z,15.97
2018-07-21T20:47:26.536Z,17.47
2018-07-21T20:49:55.046Z,16.80
2018-07-21T20:52:23.443Z,14.50
2018-07-21T20:54:51.633Z,15.70
2018-07-21T20:57:19.784Z,13.37
2018-07-21T20:59:48.022Z,14.37
2018-07-21T21:02:16.222Z,13.17
2018-07-21T21:04:44.443Z,14.43
2018-07-21T21:07:12.623Z,13.90
2018-07-21T21:09:40.802Z,12.57
2018-07-21T21:12:08.993Z,12.10
2018-07-21T21:14:37.164Z,13.70
2018-07-21T21:17:05.928Z,15.80
2018-07-21T21:19:34.137Z,16.23
2018-07-21T21:22:02.342Z,15.77
2018-07-21T21:24:30.553Z,18.17
2018-07-21T21:26:58.719Z,15.57
2018-07-21T21:29:26.896Z,13.37
2018-07-21T21:31:55.107Z,14.57
2018-07-21T21:34:24.059Z,15.37
2018-07-21T21:36:52.353Z,16.47
2018-07-21T21:39:21.175Z,17.43
2018-07-21T21:41:49.354Z,19.13
2018-07-21T21:44:17.518Z,23.07
2018-07-21T21:46:45.719Z,23.70
2018-07-21T21:49:13.947Z,21.40
2018-07-21T21:51:42.151Z,22.17
2018-07-21T21:54:10.328Z,17.37
2018-07-21T21:56:38.569Z,19.43
2018-07-21T21:59:06.747Z,18.33
2018-07-21T22:01:35.205Z,17.43
2018-07-21T22:04:03.426Z,18.90
2018-07-21T22:06:31.603Z,18.43
2018-07-21T22:09:00.219Z,19.70
2018-07-21T22:11:29.183Z,20.37
2018-07-21T22:13:57.401Z,19.70
2018-07-21T22:16:25.599Z,21.47
2018-07-21T22:18:53.840Z,21.40
2018-07-21T22:21:22.041Z,28.57
2018-07-21T22:23:50.259Z,26.57
2018-07-21T22:26:18.466Z,24.50
2018-07-21T22:28:46.693Z,23.83
2018-07-21T22:31:14.931Z,24.57
2018-07-21T22:33:44.763Z,24.00
2018-07-21T22:36:14.595Z,23.40
2018-07-21T22:38:42.853Z,23.03
2018-07-21T22:41:11.136Z,24.90
2018-07-21T22:43:39.356Z,24.10
2018-07-21T22:46:09.416Z,21.00
2018-07-21T22:48:37.649Z,22.23
2018-07-21T22:51:05.884Z,23.20
2018-07-21T22:53:34.091Z,23.50
2018-07-21T22:56:02.285Z,25.40
2018-07-21T22:58:30.492Z,25.93
2018-07-21T23:00:58.684Z,22.37
2018-07-21T23:03:27.111Z,23.60
2018-07-21T23:05:55.318Z,24.53
2018-07-21T23:08:23.508Z,31.33
2018-07-21T23:10:51.757Z,29.47
2018-07-21T23:13:19.960Z,25.03
2018-07-21T23:15:48.159Z,25.33
2018-07-21T23:18:16.364Z,27.10
2018-07-21T23:20:44.578Z,26.10
2018-07-21T23:23:13.106Z,27.03
2018-07-21T23:25:41.321Z,27.57
2018-07-21T23:28:09.541Z,29.40
2018-07-21T23:30:37.710Z,28.80
2018-07-21T23:33:05.937Z,25.73
2018-07-21T23:35:34.170Z,25.50
2018-07-21T23:38:02.399Z,25.43
2018-07-21T23:40:30.583Z,25.23
2018-07-21T23:42:59.299Z,25.43
2018-07-21T23:45:27.472Z,24.90
2018-07-21T23:47:55.667Z,24.53
2018-07-21T23:50:24.140Z,24.93
2018-07-21T23:52:52.823Z,28.20
2018-07-21T23:55:21.048Z,35.10
2018-07-21T23:57:49.286Z,38.20
